sensor_id;sensor_type;location;lat;lon;timestamp;pressure;altitude;pressure_sealevel;temperature;humidity
8294;BME280;4185;41.506;24.938;2023-03-01T00:02:21;94006.09;;;7.64;100.00
8294;BME280;4185;41.506;24.938;2023-03-01T00:04:47;94006.38;;;7.66;100.00
8294;BME280;4185;41.506;24.938;2023-03-01T00:07:14;94008.63;;;7.68;100.00
8294;BME280;4185;41.506;24.938;2023-03-01T00:09:42;94005.78;;;7.62;100.00
8294;BME280;4185;41.506;24.938;2023-03-01T00:12:11;93998.88;;;7.61;100.00
8294;BME280;4185;41.506;24.938;2023-03-01T00:14:38;94001.41;;;7.65;100.00
8294;BME280;4185;41.506;24.938;2023-03-01T00:17:05;94003.53;;;7.61;100.00
8294;BME280;4185;41.506;24.938;2023-03-01T00:19:31;93994.38;;;7.58;100.00
8294;BME280;4185;41.506;24.938;2023-03-01T00:21:59;94003.69;;;7.57;100.00
8294;BME280;4185;41.506;24.938;2023-03-01T00:24:25;93997.22;;;7.55;100.00
8294;BME280;4185;41.506;24.938;2023-03-01T00:26:54;93998.44;;;7.54;100.00
8294;BME280;4185;41.506;24.938;2023-03-01T00:29:22;93990.63;;;7.56;100.00
8294;BME280;4185;41.506;24.938;2023-03-01T00:31:49;93991.25;;;7.51;100.00
8294;BME280;4185;41.506;24.938;2023-03-01T00:34:16;93983.59;;;7.49;100.00
8294;BME280;4185;41.506;24.938;2023-03-01T00:36:42;93979.69;;;7.50;100.00
8294;BME280;4185;41.506;24.938;2023-03-01T00:39:11;93982.22;;;7.44;100.00
8294;BME280;4185;41.506;24.938;2023-03-01T00:41:38;93978.06;;;7.34;100.00
8294;BME280;4185;41.506;24.938;2023-03-01T00:44:07;93966.66;;;7.30;100.00
8294;BME280;4185;41.506;24.938;2023-03-01T00:46:34;93969.19;;;7.34;100.00
8294;BME280;4185;41.506;24.938;2023-03-01T00:49:00;93963.06;;;7.33;100.00
8294;BME280;4185;41.506;24.938;2023-03-01T00:51:30;93960.66;;;7.35;100.00
8294;BME280;4185;41.506;24.938;2023-03-01T00:53:58;93955.53;;;7.37;100.00
8294;BME280;4185;41.506;24.938;2023-03-01T00:56:26;93955.50;;;7.47;100.00
8294;BME280;4185;41.506;24.938;2023-03-01T00:58:53;93955.22;;;7.44;100.00
8294;BME280;4185;41.506;24.938;2023-03-01T01:01:23;93943.66;;;7.44;100.00
8294;BME280;4185;41.506;24.938;2023-03-01T01:03:54;93947.72;;;7.39;100.00
8294;BME280;4185;41.506;24.938;2023-03-01T01:06:24;93946.53;;;7.31;100.00
8294;BME280;4185;41.506;24.938;2023-03-01T01:08:52;93957.94;;;7.35;100.00
8294;BME280;4185;41.506;24.938;2023-03-01T01:11:20;93952.25;;;7.33;100.00
8294;BME280;4185;41.506;24.938;2023-03-01T01:13:47;93956.28;;;7.38;100.00
8294;BME280;4185;41.506;24.938;2023-03-01T01:16:15;93947.56;;;7.43;100.00
8294;BME280;4185;41.506;24.938;2023-03-01T01:18:43;93939.44;;;7.43;100.00
8294;BME280;4185;41.506;24.938;2023-03-01T01:21:12;93941.38;;;7.52;100.00
8294;BME280;4185;41.506;24.938;2023-03-01T01:23:39;93943.63;;;7.53;100.00
8294;BME280;4185;41.506;24.938;2023-03-01T01:26:08;93948.41;;;7.58;100.00
8294;BME280;4185;41.506;24.938;2023-03-01T01:28:35;93949.63;;;7.57;100.00
8294;BME280;4185;41.506;24.938;2023-03-01T01:31:03;93950.41;;;7.58;100.00
8294;BME280;4185;41.506;24.938;2023-03-01T01:33:30;93946.78;;;7.61;100.00
8294;BME280;4185;41.506;24.938;2023-03-01T01:35:58;93943.78;;;7.59;100.00
8294;BME280;4185;41.506;24.938;2023-03-01T01:38:25;93940.75;;;7.57;100.00
8294;BME280;4185;41.506;24.938;2023-03-01T01:40:52;93942.44;;;7.54;100.00
8294;BME280;4185;41.506;24.938;2023-03-01T01:43:21;93948.13;;;7.56;100.00
8294;BME280;4185;41.506;24.938;2023-03-01T01:45:49;93946.47;;;7.59;100.00
8294;BME280;4185;41.506;24.938;2023-03-01T01:48:19;93940.00;;;7.56;100.00
8294;BME280;4185;41.506;24.938;2023-03-01T01:50:53;93940.75;;;7.57;100.00
8294;BME280;4185;41.506;24.938;2023-03-01T01:53:24;93940.75;;;7.57;100.00
8294;BME280;4185;41.506;24.938;2023-03-01T01:55:53;93939.28;;;7.56;100.00
8294;BME280;4185;41.506;24.938;2023-03-01T01:58:24;93934.03;;;7.52;100.00
8294;BME280;4185;41.506;24.938;2023-03-01T02:00:52;93927.88;;;7.52;100.00
8294;BME280;4185;41.506;24.938;2023-03-01T02:03:23;93929.34;;;7.53;100.00
8294;BME280;4185;41.506;24.938;2023-03-01T02:05:58;93938.97;;;7.54;100.00
8294;BME280;4185;41.506;24.938;2023-03-01T02:08:29;93922.75;;;7.54;100.00
8294;BME280;4185;41.506;24.938;2023-03-01T02:10:58;93925.78;;;7.47;100.00
8294;BME280;4185;41.506;24.938;2023-03-01T02:13:26;93926.41;;;7.41;100.00
8294;BME280;4185;41.506;24.938;2023-03-01T02:15:53;93918.44;;;7.38;100.00
8294;BME280;4185;41.506;24.938;2023-03-01T02:18:21;93922.53;;;7.33;100.00
8294;BME280;4185;41.506;24.938;2023-03-01T02:20:58;93921.00;;;7.32;100.00
8294;BME280;4185;41.506;24.938;2023-03-01T02:23:28;93922.53;;;7.33;100.00
8294;BME280;4185;41.506;24.938;2023-03-01T02:26:01;93919.66;;;7.37;100.00
8294;BME280;4185;41.506;24.938;2023-03-01T02:28:35;93925.78;;;7.37;100.00
8294;BME280;4185;41.506;24.938;2023-03-01T02:31:05;93919.19;;;7.38;100.00
8294;BME280;4185;41.506;24.938;2023-03-01T02:33:49;93923.09;;;7.37;100.00
8294;BME280;4185;41.506;24.938;2023-03-01T02:36:19;93925.06;;;7.37;100.00
8294;BME280;4185;41.506;24.938;2023-03-01T02:38:47;93928.94;;;7.36;100.00
8294;BME280;4185;41.506;24.938;2023-03-01T02:41:16;93927.94;;;7.33;100.00
8294;BME280;4185;41.506;24.938;2023-03-01T02:43:45;93921.31;;;7.34;100.00
8294;BME280;4185;41.506;24.938;2023-03-01T02:46:17;93921.59;;;7.36;100.00
8294;BME280;4185;41.506;24.938;2023-03-01T02:48:47;93909.56;;;7.37;100.00
8294;BME280;4185;41.506;24.938;2023-03-01T02:51:25;93913.50;;;7.36;100.00
8294;BME280;4185;41.506;24.938;2023-03-01T02:54:02;93905.84;;;7.35;100.00
8294;BME280;4185;41.506;24.938;2023-03-01T02:56:33;93901.50;;;7.28;100.00
8294;BME280;4185;41.506;24.938;2023-03-01T02:59:02;93897.47;;;7.24;100.00
8294;BME280;4185;41.506;24.938;2023-03-01T03:01:30;93908.41;;;7.29;100.00
8294;BME280;4185;41.506;24.938;2023-03-01T03:04:03;93904.53;;;7.30;100.00
8294;BME280;4185;41.506;24.938;2023-03-01T03:06:30;93911.09;;;7.29;100.00
8294;BME280;4185;41.506;24.938;2023-03-01T03:08:57;93903.91;;;7.26;100.00
8294;BME280;4185;41.506;24.938;2023-03-01T03:11:24;93907.66;;;7.29;100.00
8294;BME280;4185;41.506;24.938;2023-03-01T03:13:51;93913.34;;;7.31;100.00
8294;BME280;4185;41.506;24.938;2023-03-01T03:16:19;93902.38;;;7.34;100.00
8294;BME280;4185;41.506;24.938;2023-03-01T03:18:46;93893.97;;;7.32;100.00
8294;BME280;4185;41.506;24.938;2023-03-01T03:21:14;93889.78;;;7.31;100.00
8294;BME280;4185;41.506;24.938;2023-03-01T03:23:41;93878.22;;;7.31;100.00
8294;BME280;4185;41.506;24.938;2023-03-01T03:26:08;93880.47;;;7.32;100.00
8294;BME280;4185;41.506;24.938;2023-03-01T03:28:40;93886.50;;;7.27;100.00
8294;BME280;4185;41.506;24.938;2023-03-01T03:31:07;93883.53;;;7.25;100.00
8294;BME280;4185;41.506;24.938;2023-03-01T03:33:36;93879.16;;;7.28;100.00
8294;BME280;4185;41.506;24.938;2023-03-01T03:36:03;93878.69;;;7.29;100.00
8294;BME280;4185;41.506;24.938;2023-03-01T03:38:30;93889.34;;;7.33;100.00
8294;BME280;4185;41.506;24.938;2023-03-01T03:41:02;93880.94;;;7.31;100.00
8294;BME280;4185;41.506;24.938;2023-03-01T03:43:31;93885.59;;;7.30;100.00
8294;BME280;4185;41.506;24.938;2023-03-01T03:45:58;93890.25;;;7.30;100.00
8294;BME280;4185;41.506;24.938;2023-03-01T03:48:25;93886.03;;;7.29;100.00
8294;BME280;4185;41.506;24.938;2023-03-01T03:50:55;93882.59;;;7.28;100.00
8294;BME280;4185;41.506;24.938;2023-03-01T03:53:25;93887.41;;;7.24;100.00
8294;BME280;4185;41.506;24.938;2023-03-01T03:55:52;93881.41;;;7.20;100.00
8294;BME280;4185;41.506;24.938;2023-03-01T03:58:20;93889.38;;;7.15;100.00
8294;BME280;4185;41.506;24.938;2023-03-01T04:00:51;93884.16;;;7.11;100.00
8294;BME280;4185;41.506;24.938;2023-03-01T04:03:19;93887.16;;;7.13;100.00
8294;BME280;4185;41.506;24.938;2023-03-01T04:05:46;93893.13;;;7.17;100.00
8294;BME280;4185;41.506;24.938;2023-03-01T04:08:17;93889.53;;;7.11;100.00
8294;BME280;4185;41.506;24.938;2023-03-01T04:10:47;93887.47;;;7.06;100.00
8294;BME280;4185;41.506;24.938;2023-03-01T04:13:16;93881.00;;;7.04;100.00
8294;BME280;4185;41.506;24.938;2023-03-01T04:15:45;93885.22;;;7.05;100.00
8294;BME280;4185;41.506;24.938;2023-03-01T04:18:13;93879.34;;;7.06;100.00
8294;BME280;4185;41.506;24.938;2023-03-01T04:20:41;93881.44;;;7.11;100.00
8294;BME280;4185;41.506;24.938;2023-03-01T04:23:12;93891.63;;;7.16;100.00
8294;BME280;4185;41.506;24.938;2023-03-01T04:25:45;93890.13;;;7.15;100.00
8294;BME280;4185;41.506;24.938;2023-03-01T04:28:15;93888.78;;;7.11;100.00
8294;BME280;4185;41.506;24.938;2023-03-01T04:30:42;93884.00;;;7.15;100.00
8294;BME280;4185;41.506;24.938;2023-03-01T04:33:10;93886.84;;;7.11;100.00
8294;BME280;4185;41.506;24.938;2023-03-01T04:35:38;93889.53;;;7.11;100.00
8294;BME280;4185;41.506;24.938;2023-03-01T04:38:06;93892.25;;;7.11;100.00
8294;BME280;4185;41.506;24.938;2023-03-01T04:40:33;93889.25;;;7.09;100.00
8294;BME280;4185;41.506;24.938;2023-03-01T04:43:02;93894.94;;;7.11;100.00
8294;BME280;4185;41.506;24.938;2023-03-01T04:45:31;93889.53;;;7.11;100.00
8294;BME280;4185;41.506;24.938;2023-03-01T04:47:59;93896.75;;;7.14;100.00
8294;BME280;4185;41.506;24.938;2023-03-01T04:50:26;93894.78;;;7.15;100.00
8294;BME280;4185;41.506;24.938;2023-03-01T04:52:54;93897.94;;;7.13;100.00
8294;BME280;4185;41.506;24.938;2023-03-01T04:55:24;93902.91;;;7.15;100.00
8294;BME280;4185;41.506;24.938;2023-03-01T04:57:52;93898.53;;;7.17;100.00
8294;BME280;4185;41.506;24.938;2023-03-01T05:00:21;93900.66;;;7.13;100.00
8294;BME280;4185;41.506;24.938;2023-03-01T05:02:50;93898.53;;;7.17;100.00
8294;BME280;4185;41.506;24.938;2023-03-01T05:05:25;93894.78;;;7.15;100.00
8294;BME280;4185;41.506;24.938;2023-03-01T05:07:54;93896.44;;;7.12;100.00
8294;BME280;4185;41.506;24.938;2023-03-01T05:10:23;93900.34;;;7.11;100.00
8294;BME280;4185;41.506;24.938;2023-03-01T05:12:50;93904.84;;;7.05;100.00
8294;BME280;4185;41.506;24.938;2023-03-01T05:15:17;93905.75;;;7.02;100.00
8294;BME280;4185;41.506;24.938;2023-03-01T05:17:48;93907.88;;;6.98;100.00
8294;BME280;4185;41.506;24.938;2023-03-01T05:20:16;93903.22;;;6.99;100.00
8294;BME280;4185;41.506;24.938;2023-03-01T05:22:43;93901.56;;;7.01;100.00
8294;BME280;4185;41.506;24.938;2023-03-01T05:25:10;93900.06;;;7.00;100.00
8294;BME280;4185;41.506;24.938;2023-03-01T05:27:39;93902.63;;;6.95;100.00
8294;BME280;4185;41.506;24.938;2023-03-01T05:30:08;93899.19;;;6.94;100.00
8294;BME280;4185;41.506;24.938;2023-03-01T05:32:41;93903.50;;;6.92;100.00
8294;BME280;4185;41.506;24.938;2023-03-01T05:35:11;93912.06;;;6.90;100.00
8294;BME280;4185;41.506;24.938;2023-03-01T05:37:41;93912.06;;;6.90;100.00
8294;BME280;4185;41.506;24.938;2023-03-01T05:40:10;93908.19;;;6.91;100.00
8294;BME280;4185;41.506;24.938;2023-03-01T05:42:44;93913.28;;;6.98;100.00
8294;BME280;4185;41.506;24.938;2023-03-01T05:45:11;93911.75;;;6.97;100.00
8294;BME280;4185;41.506;24.938;2023-03-01T05:47:39;93916.41;;;6.97;100.00
8294;BME280;4185;41.506;24.938;2023-03-01T05:50:12;93917.16;;;6.97;100.00
8294;BME280;4185;41.506;24.938;2023-03-01T05:52:40;93921.66;;;7.00;100.00
8294;BME280;4185;41.506;24.938;2023-03-01T05:55:08;93910.84;;;7.00;100.00
8294;BME280;4185;41.506;24.938;2023-03-01T05:57:34;93914.47;;;7.06;100.00
8294;BME280;4185;41.506;24.938;2023-03-01T06:00:02;93920.03;;;7.03;100.00
8294;BME280;4185;41.506;24.938;2023-03-01T06:02:29;93918.34;;;7.05;100.00
8294;BME280;4185;41.506;24.938;2023-03-01T06:04:56;93928.28;;;7.08;100.00
8294;BME280;4185;41.506;24.938;2023-03-01T06:07:24;93932.75;;;7.11;100.00
8294;BME280;4185;41.506;24.938;2023-03-01T06:09:51;93930.81;;;7.03;100.00
8294;BME280;4185;41.506;24.938;2023-03-01T06:12:18;93934.72;;;7.02;100.00
8294;BME280;4185;41.506;24.938;2023-03-01T06:14:45;93934.56;;;7.05;100.00
8294;BME280;4185;41.506;24.938;2023-03-01T06:17:13;93938.31;;;7.08;100.00
8294;BME280;4185;41.506;24.938;2023-03-01T06:19:40;93933.94;;;7.10;100.00
8294;BME280;4185;41.506;24.938;2023-03-01T06:22:07;93938.00;;;7.15;100.00
8294;BME280;4185;41.506;24.938;2023-03-01T06:24:36;93931.84;;;7.14;100.00
8294;BME280;4185;41.506;24.938;2023-03-01T06:27:05;93937.25;;;7.14;100.00
8294;BME280;4185;41.506;24.938;2023-03-01T06:29:32;93938.47;;;7.13;100.00
8294;BME280;4185;41.506;24.938;2023-03-01T06:31:59;93934.84;;;7.16;100.00
8294;BME280;4185;41.506;24.938;2023-03-01T06:34:26;93934.25;;;7.12;100.00
8294;BME280;4185;41.506;24.938;2023-03-01T06:36:54;93938.00;;;7.15;100.00
8294;BME280;4185;41.506;24.938;2023-03-01T06:39:21;93939.03;;;7.17;100.00
8294;BME280;4185;41.506;24.938;2023-03-01T06:41:49;93941.16;;;7.13;100.00
8294;BME280;4185;41.506;24.938;2023-03-01T06:44:16;93940.56;;;7.09;100.00
8294;BME280;4185;41.506;24.938;2023-03-01T06:46:43;93945.97;;;7.09;100.00
8294;BME280;4185;41.506;24.938;2023-03-01T06:49:10;93941.03;;;7.08;100.00
8294;BME280;4185;41.506;24.938;2023-03-01T06:51:37;93939.97;;;7.05;100.00
8294;BME280;4185;41.506;24.938;2023-03-01T06:54:04;93940.88;;;7.02;100.00
8294;BME280;4185;41.506;24.938;2023-03-01T06:56:32;93941.31;;;7.01;100.00
8294;BME280;4185;41.506;24.938;2023-03-01T06:59:00;93945.50;;;7.02;100.00
8294;BME280;4185;41.506;24.938;2023-03-01T07:01:28;93946.13;;;7.06;100.00
8294;BME280;4185;41.506;24.938;2023-03-01T07:03:55;93942.06;;;7.10;100.00
8294;BME280;4185;41.506;24.938;2023-03-01T07:06:22;93949.84;;;7.17;100.00
8294;BME280;4185;41.506;24.938;2023-03-01T07:08:49;93945.97;;;7.18;100.00
8294;BME280;4185;41.506;24.938;2023-03-01T07:11:16;93950.00;;;7.14;100.00
8294;BME280;4185;41.506;24.938;2023-03-01T07:13:43;93944.03;;;7.10;100.00
8294;BME280;4185;41.506;24.938;2023-03-01T07:16:11;93945.34;;;7.14;100.00
8294;BME280;4185;41.506;24.938;2023-03-01T07:18:39;93950.16;;;7.19;100.00
8294;BME280;4185;41.506;24.938;2023-03-01T07:21:07;93947.75;;;7.21;100.00
8294;BME280;4185;41.506;24.938;2023-03-01T07:23:34;93944.91;;;7.25;100.00
8294;BME280;4185;41.506;24.938;2023-03-01T07:26:02;93941.44;;;7.24;100.00
8294;BME280;4185;41.506;24.938;2023-03-01T07:28:29;93942.97;;;7.25;100.00
8294;BME280;4185;41.506;24.938;2023-03-01T07:31:00;93943.84;;;7.22;100.00
8294;BME280;4185;41.506;24.938;2023-03-01T07:33:29;93946.84;;;7.24;100.00
8294;BME280;4185;41.506;24.938;2023-03-01T07:35:56;93937.56;;;7.25;100.00
8294;BME280;4185;41.506;24.938;2023-03-01T07:38:24;93936.03;;;7.24;100.00
8294;BME280;4185;41.506;24.938;2023-03-01T07:40:51;93935.28;;;7.24;100.00
8294;BME280;4185;41.506;24.938;2023-03-01T07:43:19;93932.56;;;7.24;100.00
8294;BME280;4185;41.506;24.938;2023-03-01T07:45:46;93932.16;;;7.25;100.00
8294;BME280;4185;41.506;24.938;2023-03-01T07:48:13;93928.22;;;7.26;100.00
8294;BME280;4185;41.506;24.938;2023-03-01T07:50:41;93926.44;;;7.23;100.00
8294;BME280;4185;41.506;24.938;2023-03-01T07:53:08;93930.47;;;7.28;100.00
8294;BME280;4185;41.506;24.938;2023-03-01T07:55:35;93930.19;;;7.26;100.00
8294;BME280;4185;41.506;24.938;2023-03-01T07:58:03;93924.03;;;7.25;100.00
8294;BME280;4185;41.506;24.938;2023-03-01T08:00:29;93927.31;;;7.29;100.00
8294;BME280;4185;41.506;24.938;2023-03-01T08:02:59;93921.75;;;7.33;100.00
8294;BME280;4185;41.506;24.938;2023-03-01T08:05:26;93925.78;;;7.37;100.00
8294;BME280;4185;41.506;24.938;2023-03-01T08:07:54;93930.59;;;7.42;100.00
8294;BME280;4185;41.506;24.938;2023-03-01T08:10:21;93914.97;;;7.47;100.00
8294;BME280;4185;41.506;24.938;2023-03-01T08:12:51;93916.47;;;7.47;100.00
8294;BME280;4185;41.506;24.938;2023-03-01T08:15:18;93919.47;;;7.50;100.00
8294;BME280;4185;41.506;24.938;2023-03-01T08:17:45;93915.56;;;7.51;100.00
8294;BME280;4185;41.506;24.938;2023-03-01T08:20:12;93905.38;;;7.46;100.00
8294;BME280;4185;41.506;24.938;2023-03-01T08:22:39;93911.41;;;7.40;100.00
8294;BME280;4185;41.506;24.938;2023-03-01T08:25:08;93913.19;;;7.34;100.00
8294;BME280;4185;41.506;24.938;2023-03-01T08:27:35;93909.31;;;7.26;100.00
8294;BME280;4185;41.506;24.938;2023-03-01T08:30:02;93907.84;;;7.25;100.00
8294;BME280;4185;41.506;24.938;2023-03-01T08:32:29;93912.63;;;7.30;100.00
8294;BME280;4185;41.506;24.938;2023-03-01T08:34:56;93912.44;;;7.34;100.00
8294;BME280;4185;41.506;24.938;2023-03-01T08:37:25;93904.47;;;7.39;100.00
8294;BME280;4185;41.506;24.938;2023-03-01T08:39:53;93909.56;;;7.47;100.00
8294;BME280;4185;41.506;24.938;2023-03-01T08:42:22;93913.59;;;7.51;100.00
8294;BME280;4185;41.506;24.938;2023-03-01T08:44:52;93922.31;;;7.55;100.00
8294;BME280;4185;41.506;24.938;2023-03-01T08:47:20;93916.44;;;7.57;100.00
8294;BME280;4185;41.506;24.938;2023-03-01T08:49:48;93918.84;;;7.55;100.00
8294;BME280;4185;41.506;24.938;2023-03-01T08:52:15;93915.13;;;7.52;100.00
8294;BME280;4185;41.506;24.938;2023-03-01T08:54:42;93912.41;;;7.52;100.00
8294;BME280;4185;41.506;24.938;2023-03-01T08:57:09;93911.94;;;7.54;100.00
8294;BME280;4185;41.506;24.938;2023-03-01T08:59:38;93909.25;;;7.54;100.00
8294;BME280;4185;41.506;24.938;2023-03-01T09:02:11;93912.88;;;7.51;100.00
8294;BME280;4185;41.506;24.938;2023-03-01T09:04:38;93906.56;;;7.44;100.00
8294;BME280;4185;41.506;24.938;2023-03-01T09:07:06;93914.66;;;7.44;100.00
8294;BME280;4185;41.506;24.938;2023-03-01T09:09:33;93915.28;;;7.39;100.00
8294;BME280;4185;41.506;24.938;2023-03-01T09:12:01;93907.94;;;7.40;100.00
8294;BME280;4185;41.506;24.938;2023-03-01T09:14:28;93908.81;;;7.46;100.00
8294;BME280;4185;41.506;24.938;2023-03-01T09:16:56;93915.13;;;7.52;100.00
8294;BME280;4185;41.506;24.938;2023-03-01T09:19:24;93911.03;;;7.57;100.00
8294;BME280;4185;41.506;24.938;2023-03-01T09:21:51;93914.66;;;7.54;100.00
8294;BME280;4185;41.506;24.938;2023-03-01T09:24:20;93907.16;;;7.49;100.00
8294;BME280;4185;41.506;24.938;2023-03-01T09:26:48;93902.22;;;7.47;100.00
8294;BME280;4185;41.506;24.938;2023-03-01T09:29:15;93903.84;;;7.44;100.00
8294;BME280;4185;41.506;24.938;2023-03-01T09:31:42;93901.00;;;7.48;100.00
8294;BME280;4185;41.506;24.938;2023-03-01T09:34:11;93896.34;;;7.49;100.00
8294;BME280;4185;41.506;24.938;2023-03-01T09:36:39;93893.50;;;7.43;100.00
8294;BME280;4185;41.506;24.938;2023-03-01T09:39:06;93891.72;;;7.40;100.00
8294;BME280;4185;41.506;24.938;2023-03-01T09:41:43;93894.59;;;7.36;100.00
8294;BME280;4185;41.506;24.938;2023-03-01T09:44:18;93901.34;;;7.32;100.00
8294;BME280;4185;41.506;24.938;2023-03-01T09:46:47;93897.31;;;7.27;100.00
8294;BME280;4185;41.506;24.938;2023-03-01T09:49:18;93895.50;;;7.24;100.00
8294;BME280;4185;41.506;24.938;2023-03-01T09:51:55;93902.44;;;7.25;100.00
8294;BME280;4185;41.506;24.938;2023-03-01T09:54:22;93900.91;;;7.24;100.00
8294;BME280;4185;41.506;24.938;2023-03-01T09:56:59;93896.72;;;7.23;100.00
8294;BME280;4185;41.506;24.938;2023-03-01T09:59:36;93902.84;;;7.24;100.00
8294;BME280;4185;41.506;24.938;2023-03-01T10:02:20;93896.56;;;7.27;100.00
8294;BME280;4185;41.506;24.938;2023-03-01T10:04:51;93893.56;;;7.25;100.00
8294;BME280;4185;41.506;24.938;2023-03-01T10:07:29;93895.81;;;7.26;100.00
8294;BME280;4185;41.506;24.938;2023-03-01T10:09:59;93891.59;;;7.34;100.00
8294;BME280;4185;41.506;24.938;2023-03-01T10:12:35;93886.19;;;7.34;100.00
8294;BME280;4185;41.506;24.938;2023-03-01T10:15:06;93890.81;;;7.43;100.00
8294;BME280;4185;41.506;24.938;2023-03-01T10:17:37;93891.25;;;7.41;100.00
8294;BME280;4185;41.506;24.938;2023-03-01T10:20:20;93888.09;;;7.43;100.00
8294;BME280;4185;41.506;24.938;2023-03-01T10:22:47;93889.72;;;7.50;100.00
8294;BME280;4185;41.506;24.938;2023-03-01T10:25:25;93886.69;;;7.57;100.00
8294;BME280;4185;41.506;24.938;2023-03-01T10:27:54;93890.31;;;7.63;100.00
8294;BME280;4185;41.506;24.938;2023-03-01T10:30:32;93890.09;;;7.66;100.00
8294;BME280;4185;41.506;24.938;2023-03-01T10:33:01;93881.66;;;7.73;100.00
8294;BME280;4185;41.506;24.938;2023-03-01T10:35:33;93877.88;;;7.80;100.00
8294;BME280;4185;41.506;24.938;2023-03-01T10:38:05;93882.56;;;7.79;100.00
8294;BME280;4185;41.506;24.938;2023-03-01T10:40:33;93875.81;;;7.75;100.00
8294;BME280;4185;41.506;24.938;2023-03-01T10:43:02;93877.06;;;7.65;100.00
8294;BME280;4185;41.506;24.938;2023-03-01T10:45:34;93877.97;;;7.62;100.00
8294;BME280;4185;41.506;24.938;2023-03-01T10:48:08;93867.91;;;7.62;100.00
8294;BME280;4185;41.506;24.938;2023-03-01T10:50:39;93871.09;;;7.61;100.00
8294;BME280;4185;41.506;24.938;2023-03-01T10:53:23;93860.28;;;7.61;100.00
8294;BME280;4185;41.506;24.938;2023-03-01T10:56:00;93858.03;;;7.59;100.00
8294;BME280;4185;41.506;24.938;2023-03-01T10:58:28;93847.38;;;7.56;100.00
8294;BME280;4185;41.506;24.938;2023-03-01T11:00:56;93852.03;;;7.55;100.00
8294;BME280;4185;41.506;24.938;2023-03-01T11:03:25;93847.53;;;7.52;100.00
8294;BME280;4185;41.506;24.938;2023-03-01T11:05:59;93850.69;;;7.51;100.00
8294;BME280;4185;41.506;24.938;2023-03-01T11:08:34;93833.28;;;7.52;100.00
8294;BME280;4185;41.506;24.938;2023-03-01T11:13:53;93819.13;;;7.57;100.00
8294;BME280;4185;41.506;24.938;2023-03-01T11:16:38;93827.06;;;7.60;100.00
8294;BME280;4185;41.506;24.938;2023-03-01T11:19:18;93828.84;;;7.63;100.00
8294;BME280;4185;41.506;24.938;2023-03-01T11:21:56;93834.56;;;7.65;100.00
8294;BME280;4185;41.506;24.938;2023-03-01T11:24:30;93822.97;;;7.65;100.00
8294;BME280;4185;41.506;24.938;2023-03-01T11:27:00;93821.50;;;7.64;100.00
8294;BME280;4185;41.506;24.938;2023-03-01T11:29:34;93822.34;;;7.70;100.00
8294;BME280;4185;41.506;24.938;2023-03-01T11:32:06;93823.56;;;7.69;100.00
8294;BME280;4185;41.506;24.938;2023-03-01T11:34:40;93823.88;;;7.71;100.00
8294;BME280;4185;41.506;24.938;2023-03-01T11:37:16;93814.25;;;7.70;100.00
8294;BME280;4185;41.506;24.938;2023-03-01T11:39:54;93817.66;;;7.79;100.00
8294;BME280;4185;41.506;24.938;2023-03-01T11:42:29;93814.34;;;7.84;100.00
8294;BME280;4185;41.506;24.938;2023-03-01T11:45:08;93814.88;;;7.88;100.00
8294;BME280;4185;41.506;24.938;2023-03-01T11:47:51;93809.78;;;7.90;100.00
8294;BME280;4185;41.506;24.938;2023-03-01T11:50:28;93801.53;;;7.85;100.00
8294;BME280;4185;41.506;24.938;2023-03-01T11:53:17;93800.81;;;7.84;100.00
8294;BME280;4185;41.506;24.938;2023-03-01T11:55:55;93797.63;;;7.86;100.00
8294;BME280;4185;41.506;24.938;2023-03-01T11:58:40;93804.59;;;7.78;100.00
8294;BME280;4185;41.506;24.938;2023-03-01T12:01:23;93808.50;;;7.77;100.00
8294;BME280;4185;41.506;24.938;2023-03-01T12:04:23;93807.19;;;7.72;100.00
8294;BME280;4185;41.506;24.938;2023-03-01T12:06:57;93802.81;;;7.75;100.00
8294;BME280;4185;41.506;24.938;2023-03-01T12:09:54;93811.50;;;7.79;100.00
8294;BME280;4185;41.506;24.938;2023-03-01T12:12:35;93812.97;;;7.80;100.00
8294;BME280;4185;41.506;24.938;2023-03-01T12:15:29;93806.69;;;7.83;100.00
8294;BME280;4185;41.506;24.938;2023-03-01T12:18:16;93819.63;;;7.79;100.00
8294;BME280;4185;41.506;24.938;2023-03-01T12:20:56;93814.84;;;7.74;100.00
8294;BME280;4185;41.506;24.938;2023-03-01T12:23:37;93799.25;;;7.69;100.00
8294;BME280;4185;41.506;24.938;2023-03-01T12:26:17;93804.03;;;7.74;100.00
8294;BME280;4185;41.506;24.938;2023-03-01T12:28:51;93799.84;;;7.73;100.00
8294;BME280;4185;41.506;24.938;2023-03-01T12:34:55;93793.72;;;7.63;100.00
8294;BME280;4185;41.506;24.938;2023-03-01T12:37:34;93788.88;;;7.67;100.00
8294;BME280;4185;41.506;24.938;2023-03-01T12:40:15;93790.28;;;7.63;100.00
8294;BME280;4185;41.506;24.938;2023-03-01T12:42:56;93785.75;;;7.60;100.00
8294;BME280;4185;41.506;24.938;2023-03-01T12:48:28;93776.97;;;7.50;100.00
8294;BME280;4185;41.506;24.938;2023-03-01T12:51:01;93773.13;;;7.42;100.00
8294;BME280;4185;41.506;24.938;2023-03-01T12:53:31;93784.63;;;7.52;100.00
8294;BME280;4185;41.506;24.938;2023-03-01T12:56:00;93779.50;;;7.54;100.00
8294;BME280;4185;41.506;24.938;2023-03-01T12:58:33;93779.34;;;7.57;100.00
8294;BME280;4185;41.506;24.938;2023-03-01T13:01:08;93786.97;;;7.59;100.00
8294;BME280;4185;41.506;24.938;2023-03-01T13:03:53;93789.41;;;7.57;100.00
8294;BME280;4185;41.506;24.938;2023-03-01T13:06:29;93786.41;;;7.55;100.00
8294;BME280;4185;41.506;24.938;2023-03-01T13:09:06;93786.41;;;7.55;100.00
8294;BME280;4185;41.506;24.938;2023-03-01T13:11:34;93790.31;;;7.54;100.00
8294;BME280;4185;41.506;24.938;2023-03-01T13:14:37;93793.31;;;7.56;100.00
8294;BME280;4185;41.506;24.938;2023-03-01T13:17:30;93794.81;;;7.57;100.00
8294;BME280;4185;41.506;24.938;2023-03-01T13:19:58;93788.13;;;7.67;100.00
8294;BME280;4185;41.506;24.938;2023-03-01T13:22:28;93784.81;;;7.72;100.00
8294;BME280;4185;41.506;24.938;2023-03-01T13:25:18;93784.34;;;7.73;100.00
8294;BME280;4185;41.506;24.938;2023-03-01T13:27:46;93780.16;;;7.72;100.00
8294;BME280;4185;41.506;24.938;2023-03-01T13:30:42;93786.03;;;7.71;100.00
8294;BME280;4185;41.506;24.938;2023-03-01T13:33:37;93789.66;;;7.68;100.00
8294;BME280;4185;41.506;24.938;2023-03-01T13:36:07;93787.56;;;7.63;100.00
8294;BME280;4185;41.506;24.938;2023-03-01T13:38:38;93781.56;;;7.59;100.00